Time;durP1;ratioP1;P1;durP2;ratioP2;P2;SDS_P1;SDS_P2;PMS_P1;PMS_P2;Temp;Humidity;BMP_temperature;BMP_pressure;BME280_temperature;BME280_humidity;BME280_pressure;Samples;Min_cycle;Max_cycle;Signal;HPM_P1;HPM_P2
2024/01/25 00:00:20;;;;;;;4.25;1.17;;;7.70;99.90;;;;;;4964542;28;20130;-58
2024/01/25 00:02:47;;;;;;;3.83;1.10;;;7.60;99.90;;;;;;4963561;28;20040;-59
2024/01/25 00:05:14;;;;;;;1.83;1.02;;;7.60;99.90;;;;;;4964663;28;20507;-59
2024/01/25 00:07:45;;;;;;;;;;;7.90;99.90;;;;;;4971799;28;20423;-60
2024/01/25 00:10:12;;;;;;;4.63;1.00;;;7.90;99.90;;;;;;4972628;28;19946;-58
2024/01/25 00:12:40;;;;;;;1.95;0.88;;;7.90;99.90;;;;;;4962205;28;20042;-60
2024/01/25 00:15:07;;;;;;;;;;;7.90;99.90;;;;;;4968159;28;20150;-58
2024/01/25 00:17:33;;;;;;;4.20;0.73;;;7.80;99.90;;;;;;4966277;28;19926;-60
2024/01/25 00:20:00;;;;;;;7.85;1.17;;;7.80;99.90;;;;;;4983083;28;20038;-59
2024/01/25 00:22:27;;;;;;;3.80;0.80;;;7.70;99.90;;;;;;4968525;28;20378;-59
2024/01/25 00:24:54;;;;;;;5.80;1.08;;;7.70;99.90;;;;;;4978988;28;20098;-59
2024/01/25 00:27:21;;;;;;;2.85;1.00;;;7.80;99.90;;;;;;4956850;28;20395;-59
2024/01/25 00:29:48;;;;;;;3.25;0.90;;;8.00;99.90;;;;;;4966847;28;20039;-57
2024/01/25 00:32:14;;;;;;;5.93;0.90;;;8.00;99.90;;;;;;4973157;28;20045;-58
2024/01/25 00:34:41;;;;;;;5.22;0.90;;;7.90;99.90;;;;;;4968888;28;20126;-59
2024/01/25 00:37:10;;;;;;;6.82;1.02;;;7.70;99.90;;;;;;4970212;28;20049;-60
2024/01/25 00:39:37;;;;;;;2.55;0.90;;;7.50;99.90;;;;;;4974354;28;20491;-59
2024/01/25 00:42:05;;;;;;;4.68;0.98;;;7.30;99.90;;;;;;4963155;28;20408;-59
2024/01/25 00:44:33;;;;;;;6.95;1.35;;;7.20;99.90;;;;;;4974084;28;20437;-59
2024/01/25 00:47:07;;;;;;;4.25;1.17;;;7.10;99.90;;;;;;5066519;28;20441;-60
2024/01/25 00:49:35;;;;;;;4.13;1.10;;;7.00;99.90;;;;;;5068637;28;20121;-60
2024/01/25 00:52:03;;;;;;;8.65;1.23;;;7.00;99.90;;;;;;5067414;28;20167;-59
2024/01/25 00:54:30;;;;;;;7.15;1.10;;;7.00;99.90;;;;;;5060252;28;20474;-60
2024/01/25 00:56:57;;;;;;;2.78;1.02;;;6.90;99.90;;;;;;5060253;28;20529;-59
2024/01/25 00:59:24;;;;;;;3.40;0.90;;;6.90;99.90;;;;;;5071933;23;20064;-51
2024/01/25 01:01:55;;;;;;;5.63;0.98;;;6.90;99.90;;;;;;5066687;28;20044;-54
2024/01/25 01:04:22;;;;;;;3.33;0.90;;;6.70;99.90;;;;;;5059693;28;20497;-54
2024/01/25 01:06:49;;;;;;;5.18;1.20;;;6.70;99.90;;;;;;5056661;28;20072;-54
2024/01/25 01:09:17;;;;;;;;;;;6.80;99.90;;;;;;5056319;28;20049;-52
2024/01/25 01:11:44;;;;;;;13.07;3.13;;;6.80;99.90;;;;;;5058005;28;19920;-52
2024/01/25 01:14:12;;;;;;;4.63;0.80;;;6.90;99.90;;;;;;5055714;28;20061;-51
2024/01/25 01:16:38;;;;;;;;;;;6.90;99.90;;;;;;5047523;28;20041;-52
2024/01/25 01:19:06;;;;;;;11.55;2.67;;;6.80;99.90;;;;;;5055572;28;19924;-54
2024/01/25 01:21:35;;;;;;;6.00;1.55;;;6.60;99.90;;;;;;5055534;28;20044;-51
2024/01/25 01:24:02;;;;;;;5.85;0.95;;;6.70;99.90;;;;;;5039175;28;20067;-52
2024/01/25 01:26:29;;;;;;;;;;;6.70;99.90;;;;;;5056911;28;20055;-51
2024/01/25 01:28:56;;;;;;;4.57;1.10;;;6.70;99.90;;;;;;5041547;28;19924;-52
2024/01/25 01:31:22;;;;;;;8.75;1.35;;;6.70;99.90;;;;;;5058900;28;20079;-56
2024/01/25 01:33:49;;;;;;;3.03;1.00;;;6.60;99.90;;;;;;5041515;28;20033;-53
2024/01/25 01:36:17;;;;;;;5.55;1.48;;;6.60;99.90;;;;;;5045084;28;20516;-51
2024/01/25 01:38:43;;;;;;;4.97;0.80;;;6.60;99.90;;;;;;5031509;28;20069;-51
2024/01/25 01:41:13;;;;;;;5.18;0.90;;;6.60;99.90;;;;;;5036445;28;20045;-53
2024/01/25 01:43:40;;;;;;;3.90;0.93;;;6.50;99.90;;;;;;5030990;28;20446;-51
2024/01/25 01:46:20;;;;;;;4.68;0.88;;;6.50;99.90;;;;;;5056323;28;20121;-54
2024/01/25 01:48:47;;;;;;;2.67;0.80;;;6.50;99.90;;;;;;5052225;28;20059;-51
2024/01/25 01:51:14;;;;;;;;;;;6.50;99.90;;;;;;5054819;28;20095;-51
2024/01/25 01:53:41;;;;;;;7.80;1.48;;;6.50;99.90;;;;;;5054982;28;19927;-51
2024/01/25 01:56:09;;;;;;;8.73;1.10;;;6.50;99.90;;;;;;5055453;28;20033;-52
2024/01/25 01:58:38;;;;;;;8.02;1.55;;;6.50;99.90;;;;;;5040558;28;20064;-51
2024/01/25 02:01:05;;;;;;;6.70;1.15;;;6.60;99.90;;;;;;5025895;28;20045;-52
2024/01/25 02:03:32;;;;;;;;;;;6.60;99.90;;;;;;5033740;28;20041;-51
2024/01/25 02:06:02;;;;;;;4.60;1.10;;;6.60;99.90;;;;;;5038897;28;20015;-51
2024/01/25 02:08:29;;;;;;;5.43;1.05;;;6.60;99.90;;;;;;5038627;28;20045;-51
2024/01/25 02:10:56;;;;;;;5.97;1.35;;;6.60;99.90;;;;;;5041231;28;20120;-51
2024/01/25 02:13:23;;;;;;;4.20;0.55;;;6.60;99.90;;;;;;5038750;28;20049;-51
2024/01/25 02:15:50;;;;;;;3.92;0.75;;;6.60;99.90;;;;;;5039989;28;20038;-51
2024/01/25 02:18:17;;;;;;;3.25;1.02;;;6.60;99.90;;;;;;5037850;28;20041;-53
2024/01/25 02:20:44;;;;;;;6.70;1.35;;;6.50;99.90;;;;;;5040006;28;20061;-51
2024/01/25 02:23:11;;;;;;;8.20;0.90;;;6.50;99.90;;;;;;5039222;28;20041;-52
2024/01/25 02:25:38;;;;;;;4.45;0.63;;;6.50;99.90;;;;;;5038621;28;20049;-52
2024/01/25 02:28:05;;;;;;;4.03;0.60;;;6.60;99.90;;;;;;5041705;28;20052;-51
2024/01/25 02:30:32;;;;;;;6.28;1.02;;;6.70;99.90;;;;;;5034920;28;20045;-55
2024/01/25 02:32:59;;;;;;;4.60;1.02;;;6.70;99.90;;;;;;5040662;28;20052;-52
2024/01/25 02:35:26;;;;;;;6.20;0.63;;;6.70;99.90;;;;;;5035331;28;20469;-51
2024/01/25 02:37:53;;;;;;;5.22;0.80;;;6.50;99.90;;;;;;5040641;28;20038;-52
2024/01/25 02:40:19;;;;;;;6.55;0.68;;;6.40;99.90;;;;;;5040409;28;20045;-50
2024/01/25 02:42:46;;;;;;;4.63;0.80;;;6.30;99.90;;;;;;5036898;28;20038;-51
2024/01/25 02:45:13;;;;;;;3.30;0.70;;;6.30;99.90;;;;;;5041754;28;20041;-51
2024/01/25 02:47:40;;;;;;;4.88;0.68;;;6.30;99.90;;;;;;5036306;28;20087;-51
2024/01/25 02:50:07;;;;;;;4.88;0.75;;;6.30;99.90;;;;;;5042569;28;20041;-51
2024/01/25 02:52:34;;;;;;;;;;;6.30;99.90;;;;;;5039893;28;20037;-51
2024/01/25 02:55:01;;;;;;;3.90;0.75;;;6.20;99.90;;;;;;5041686;28;20393;-51
2024/01/25 02:57:31;;;;;;;6.10;0.60;;;6.20;99.90;;;;;;5036005;28;20560;-51
2024/01/25 02:59:58;;;;;;;2.50;0.70;;;6.20;99.90;;;;;;5039908;28;20041;-51
2024/01/25 03:02:25;;;;;;;2.13;0.85;;;6.20;99.90;;;;;;5040288;28;20045;-51
2024/01/25 03:04:51;;;;;;;4.32;0.52;;;6.20;99.90;;;;;;5039567;28;20107;-51
2024/01/25 03:07:18;;;;;;;4.63;0.93;;;6.20;99.90;;;;;;5041429;28;20041;-51
2024/01/25 03:09:45;;;;;;;6.35;0.70;;;6.20;99.90;;;;;;5020572;28;20049;-51
2024/01/25 03:12:12;;;;;;;3.97;0.68;;;6.00;99.90;;;;;;5039192;28;20072;-51
2024/01/25 03:14:39;;;;;;;3.88;0.90;;;6.00;99.90;;;;;;5039053;28;20041;-52
2024/01/25 03:17:05;;;;;;;2.97;0.60;;;6.00;99.90;;;;;;5036486;28;20429;-52
2024/01/25 03:19:33;;;;;;;3.50;0.60;;;6.10;99.90;;;;;;5037946;28;20037;-53
2024/01/25 03:22:02;;;;;;;2.63;0.50;;;6.00;99.90;;;;;;5040991;28;20052;-54
2024/01/25 03:24:29;;;;;;;2.92;0.80;;;6.00;99.90;;;;;;5039446;28;20048;-51
2024/01/25 03:26:55;;;;;;;3.25;0.60;;;5.90;99.90;;;;;;5038845;28;20521;-51
2024/01/25 03:29:22;;;;;;;7.53;0.80;;;5.90;99.90;;;;;;5040999;28;20060;-52
2024/01/25 03:31:49;;;;;;;4.97;0.50;;;5.90;99.90;;;;;;5041149;28;20163;-52
2024/01/25 03:34:17;;;;;;;2.22;0.30;;;5.90;99.90;;;;;;5039636;28;20045;-52
2024/01/25 03:36:44;;;;;;;2.03;0.50;;;6.00;99.90;;;;;;5038998;28;20446;-51
2024/01/25 03:39:11;;;;;;;7.68;0.65;;;6.00;99.90;;;;;;5038320;28;20037;-52
2024/01/25 03:41:38;;;;;;;2.33;0.43;;;6.10;99.90;;;;;;5040737;28;20038;-51
2024/01/25 03:44:04;;;;;;;4.53;0.50;;;6.00;99.90;;;;;;5040044;28;20053;-53
2024/01/25 03:46:31;;;;;;;3.85;0.65;;;6.00;99.90;;;;;;5038918;28;20050;-51
2024/01/25 03:48:58;;;;;;;1.42;0.50;;;6.00;99.90;;;;;;5041881;28;20095;-52
2024/01/25 03:51:26;;;;;;;3.70;0.70;;;6.00;99.90;;;;;;5040459;28;20037;-53
2024/01/25 03:53:55;;;;;;;3.60;0.50;;;6.00;99.90;;;;;;5039215;28;20037;-51
2024/01/25 03:56:22;;;;;;;6.05;0.60;;;5.90;99.90;;;;;;5035057;28;20485;-51
2024/01/25 03:58:50;;;;;;;3.13;0.40;;;5.80;99.90;;;;;;5041734;28;20090;-51
2024/01/25 04:01:16;;;;;;;;;;;5.80;99.90;;;;;;5042214;28;20037;-52
2024/01/25 04:03:44;;;;;;;0.60;0.38;;;5.70;99.90;;;;;;5040582;28;19968;-51
2024/01/25 04:06:10;;;;;;;3.28;0.47;;;5.70;99.90;;;;;;5039585;28;20044;-51
2024/01/25 04:08:37;;;;;;;1.33;0.30;;;5.70;99.90;;;;;;5042934;28;20040;-51
2024/01/25 04:11:04;;;;;;;3.58;0.52;;;5.70;99.90;;;;;;5041671;28;20531;-52
2024/01/25 04:13:31;;;;;;;3.92;0.47;;;5.70;99.90;;;;;;5033963;28;20100;-51
2024/01/25 04:15:58;;;;;;;2.83;0.30;;;5.70;99.90;;;;;;5042779;28;20394;-51
2024/01/25 04:18:25;;;;;;;2.45;0.30;;;5.60;99.90;;;;;;5021755;28;20040;-51
2024/01/25 04:20:52;;;;;;;1.10;0.40;;;5.60;99.90;;;;;;5039399;28;20041;-52
2024/01/25 04:23:19;;;;;;;2.42;0.40;;;5.50;99.90;;;;;;5040823;28;20041;-51
2024/01/25 04:25:46;;;;;;;3.60;0.32;;;5.50;99.90;;;;;;5042060;28;20029;-53
2024/01/25 04:28:13;;;;;;;2.42;0.95;;;5.50;99.90;;;;;;5035769;28;20128;-51
2024/01/25 04:30:40;;;;;;;1.77;1.00;;;5.50;99.90;;;;;;5040786;28;20669;-51
2024/01/25 04:33:07;;;;;;;3.08;0.50;;;5.50;99.90;;;;;;5042363;28;20044;-51
2024/01/25 04:35:34;;;;;;;0.20;0.10;;;5.60;99.90;;;;;;5036168;28;20042;-51
2024/01/25 04:38:01;;;;;;;0.95;0.50;;;5.60;99.90;;;;;;5037325;28;20111;-52
2024/01/25 04:40:28;;;;;;;2.90;0.47;;;5.60;99.90;;;;;;5040428;28;20048;-51
2024/01/25 04:42:55;;;;;;;0.50;0.20;;;5.60;99.90;;;;;;5043033;28;20045;-53
2024/01/25 04:45:22;;;;;;;1.45;0.10;;;5.50;99.90;;;;;;5036858;28;20041;-51
2024/01/25 04:47:48;;;;;;;0.47;0.10;;;5.70;99.90;;;;;;5039207;28;20055;-52
2024/01/25 04:50:16;;;;;;;0.28;0.17;;;5.70;99.90;;;;;;5042462;28;20032;-53
2024/01/25 04:52:43;;;;;;;0.28;0.20;;;5.60;99.90;;;;;;5041905;28;20045;-51
2024/01/25 04:55:10;;;;;;;0.20;0.20;;;5.50;99.90;;;;;;5041421;28;20071;-52
2024/01/25 04:57:37;;;;;;;0.10;0.10;;;5.50;99.90;;;;;;5040410;28;20117;-51
2024/01/25 05:00:04;;;;;;;1.05;0.20;;;5.50;99.90;;;;;;5043632;28;20034;-54
2024/01/25 05:02:31;;;;;;;;;;;5.40;99.90;;;;;;5039405;28;20042;-53
2024/01/25 05:04:58;;;;;;;2.08;0.20;;;5.40;99.90;;;;;;5040237;28;20382;-51
2024/01/25 05:07:25;;;;;;;0.38;0.10;;;5.40;99.90;;;;;;5039713;28;20327;-51
2024/01/25 05:09:56;;;;;;;1.70;0.10;;;5.40;99.90;;;;;;5042215;28;20040;-53
2024/01/25 05:12:23;;;;;;;;;;;5.30;99.90;;;;;;5042505;28;20041;-53
2024/01/25 05:14:50;;;;;;;0.05;0.05;;;5.30;99.90;;;;;;5024593;28;19921;-52
2024/01/25 05:17:17;;;;;;;0.40;0.20;;;5.30;99.90;;;;;;5039675;28;20790;-51
2024/01/25 05:19:44;;;;;;;0.10;0.10;;;5.30;99.90;;;;;;5039540;28;20095;-51
2024/01/25 05:22:11;;;;;;;0.65;0.20;;;5.30;99.90;;;;;;5034684;28;20045;-53
2024/01/25 05:24:38;;;;;;;0.80;0.70;;;5.30;99.90;;;;;;5039864;28;20045;-51
2024/01/25 05:27:05;;;;;;;1.02;0.60;;;5.40;99.90;;;;;;5042047;28;20451;-53
2024/01/25 05:29:32;;;;;;;0.40;0.30;;;5.30;99.90;;;;;;5039157;28;20037;-52
2024/01/25 05:31:58;;;;;;;2.05;0.32;;;5.20;99.90;;;;;;5034912;28;20050;-53
2024/01/25 05:34:25;;;;;;;0.45;0.17;;;5.20;99.90;;;;;;5033787;28;20051;-54
2024/01/25 05:36:52;;;;;;;0.10;0.10;;;5.10;99.90;;;;;;5018532;28;20617;-56
2024/01/25 05:39:20;;;;;;;0.45;0.28;;;5.10;99.90;;;;;;5004501;28;20056;-51
2024/01/25 05:41:47;;;;;;;0.90;0.50;;;5.10;99.90;;;;;;5026926;28;20159;-55
2024/01/25 05:44:14;;;;;;;0.40;0.40;;;5.10;99.90;;;;;;4988107;28;20045;-51
2024/01/25 05:46:40;;;;;;;0.13;0.10;;;5.00;99.90;;;;;;5018208;28;20129;-51
2024/01/25 05:49:07;;;;;;;0.65;0.32;;;5.00;99.90;;;;;;5025210;28;20049;-55
2024/01/25 05:51:35;;;;;;;0.88;0.63;;;5.00;99.90;;;;;;5024915;28;20472;-56
2024/01/25 05:54:03;;;;;;;0.95;0.20;;;5.00;99.90;;;;;;5033800;28;20512;-51
2024/01/25 05:56:30;;;;;;;3.20;1.10;;;5.00;99.90;;;;;;5025938;28;20045;-51
2024/01/25 05:58:57;;;;;;;1.52;0.50;;;5.00;99.90;;;;;;5031692;28;20041;-51
2024/01/25 06:01:23;;;;;;;2.97;0.70;;;5.00;99.90;;;;;;5027857;28;20037;-51
2024/01/25 06:03:50;;;;;;;1.52;0.80;;;4.90;99.90;;;;;;5032684;28;20041;-54
2024/01/25 06:06:18;;;;;;;2.58;0.40;;;4.90;99.90;;;;;;5021679;28;20033;-53
2024/01/25 06:08:45;;;;;;;0.80;0.38;;;4.90;99.90;;;;;;5033994;28;20038;-54
2024/01/25 06:11:24;;;;;;;0.75;0.40;;;4.90;99.90;;;;;;5029497;28;20065;-55
2024/01/25 06:13:51;;;;;;;0.50;0.20;;;4.80;99.90;;;;;;5024217;28;20033;-52
2024/01/25 06:16:18;;;;;;;2.38;0.45;;;4.80;99.90;;;;;;5029033;28;20116;-53
2024/01/25 06:18:45;;;;;;;1.48;0.80;;;4.80;99.90;;;;;;5027657;28;20041;-53
2024/01/25 06:21:12;;;;;;;2.42;1.48;;;4.80;99.90;;;;;;5030214;28;20037;-52
2024/01/25 06:23:38;;;;;;;1.10;0.75;;;4.80;99.90;;;;;;5028064;28;20036;-50
2024/01/25 06:26:05;;;;;;;0.50;0.40;;;4.80;99.90;;;;;;5026628;28;20048;-50
2024/01/25 06:28:32;;;;;;;0.40;0.20;;;4.70;99.90;;;;;;5033340;28;20054;-50
2024/01/25 06:31:01;;;;;;;1.10;0.30;;;4.80;99.90;;;;;;5032677;28;20494;-50
2024/01/25 06:33:28;;;;;;;2.58;0.75;;;4.80;99.90;;;;;;5030367;28;20056;-51
2024/01/25 06:35:56;;;;;;;2.50;1.15;;;4.80;99.90;;;;;;5029784;28;20049;-51
2024/01/25 06:38:22;;;;;;;7.07;2.80;;;4.80;99.90;;;;;;5029245;28;20037;-50
2024/01/25 06:40:49;;;;;;;2.95;2.00;;;4.60;99.90;;;;;;5033073;28;20096;-51
2024/01/25 06:43:16;;;;;;;1.75;1.15;;;4.60;99.90;;;;;;5026009;28;20095;-52
2024/01/25 06:45:43;;;;;;;1.55;0.77;;;4.60;99.90;;;;;;5026165;28;20034;-50
2024/01/25 06:48:10;;;;;;;1.25;0.90;;;4.70;99.90;;;;;;5030110;28;20376;-50
2024/01/25 06:50:37;;;;;;;2.10;1.13;;;4.70;99.90;;;;;;5014693;28;20509;-51
2024/01/25 06:53:04;;;;;;;1.25;0.70;;;4.60;99.90;;;;;;5023944;28;20516;-50
2024/01/25 06:55:31;;;;;;;4.50;0.90;;;4.60;99.90;;;;;;5032618;28;20147;-50
2024/01/25 06:57:58;;;;;;;1.50;0.90;;;4.70;99.90;;;;;;5023905;28;20045;-53
2024/01/25 07:00:25;;;;;;;2.17;0.80;;;4.70;99.90;;;;;;5032735;28;20036;-53
2024/01/25 07:02:52;;;;;;;1.65;1.05;;;4.70;99.90;;;;;;5032067;28;20045;-52
2024/01/25 07:05:20;;;;;;;1.17;0.70;;;4.60;99.90;;;;;;5028008;28;20091;-53
2024/01/25 07:07:46;;;;;;;7.05;2.00;;;4.60;99.90;;;;;;5028060;28;20044;-54
2024/01/25 07:10:14;;;;;;;3.90;1.65;;;4.60;99.90;;;;;;5032425;28;20042;-51
2024/01/25 07:12:41;;;;;;;3.78;2.40;;;4.60;99.90;;;;;;5032526;28;20422;-52
2024/01/25 07:15:08;;;;;;;3.00;1.92;;;4.60;99.90;;;;;;5027025;28;20041;-50
2024/01/25 07:17:35;;;;;;;7.53;2.75;;;4.60;99.90;;;;;;5026047;28;20049;-52
2024/01/25 07:20:02;;;;;;;5.50;2.83;;;4.60;99.90;;;;;;5014447;28;20053;-52
2024/01/25 07:22:29;;;;;;;1.73;0.98;;;4.60;99.90;;;;;;5030096;28;20371;-51
2024/01/25 07:24:57;;;;;;;3.53;1.77;;;4.70;99.90;;;;;;5032136;28;20045;-53
2024/01/25 07:27:23;;;;;;;;;;;4.70;99.90;;;;;;5021798;28;20037;-54
2024/01/25 07:29:50;;;;;;;1.95;1.23;;;4.70;99.90;;;;;;5032326;28;19925;-52
2024/01/25 07:32:18;;;;;;;2.58;1.20;;;4.70;99.90;;;;;;5032119;28;20060;-50
2024/01/25 07:34:45;;;;;;;1.88;1.05;;;4.70;99.90;;;;;;5028287;28;20042;-50
2024/01/25 07:37:14;;;;;;;2.88;0.82;;;4.70;99.90;;;;;;5024794;28;20111;-51
2024/01/25 07:39:41;;;;;;;3.03;0.90;;;4.70;99.90;;;;;;5031867;28;20041;-53
2024/01/25 07:42:08;;;;;;;2.75;1.23;;;4.70;99.90;;;;;;5030821;28;20375;-51
2024/01/25 07:44:34;;;;;;;2.88;1.40;;;4.70;99.90;;;;;;5031368;28;20041;-54
2024/01/25 07:47:02;;;;;;;3.80;1.70;;;4.70;99.90;;;;;;5028821;28;20045;-53
2024/01/25 07:49:29;;;;;;;;;;;4.70;99.90;;;;;;5032634;28;20486;-53
2024/01/25 07:51:56;;;;;;;7.38;3.95;;;4.70;99.90;;;;;;5032087;28;19928;-51
2024/01/25 07:54:23;;;;;;;1.98;1.35;;;4.70;99.90;;;;;;5030647;28;20052;-50
2024/01/25 07:56:50;;;;;;;;;;;4.70;99.90;;;;;;5028504;28;20049;-55
2024/01/25 07:59:17;;;;;;;6.50;3.20;;;4.70;99.90;;;;;;5030207;28;19928;-50
2024/01/25 08:01:43;;;;;;;4.65;2.65;;;4.80;99.90;;;;;;5031719;28;20048;-51
2024/01/25 08:04:10;;;;;;;3.92;2.97;;;4.80;99.90;;;;;;5027764;28;20398;-52
2024/01/25 08:06:37;;;;;;;4.00;2.40;;;4.90;99.90;;;;;;5028292;28;20482;-51
2024/01/25 08:09:04;;;;;;;4.22;2.75;;;5.00;99.90;;;;;;5023234;28;20492;-51
2024/01/25 08:11:31;;;;;;;4.32;3.28;;;5.00;99.90;;;;;;5031205;28;20037;-50
2024/01/25 08:13:58;;;;;;;3.58;2.42;;;5.00;99.90;;;;;;5028277;28;20045;-50
2024/01/25 08:16:25;;;;;;;5.18;2.83;;;5.10;99.90;;;;;;5027487;28;20038;-50
2024/01/25 08:18:52;;;;;;;6.75;3.45;;;5.20;99.90;;;;;;5031338;28;20390;-50
2024/01/25 08:21:19;;;;;;;5.50;2.60;;;5.10;99.90;;;;;;5030768;28;20048;-50
2024/01/25 08:23:46;;;;;;;3.47;2.05;;;5.10;99.90;;;;;;5026379;28;20060;-55
2024/01/25 08:26:13;;;;;;;2.15;1.67;;;5.10;99.90;;;;;;5028899;28;20049;-50
2024/01/25 08:28:40;;;;;;;10.05;5.00;;;5.10;99.90;;;;;;5030997;28;20053;-50
2024/01/25 08:31:07;;;;;;;4.40;3.10;;;5.20;99.90;;;;;;5030943;28;20124;-50
2024/01/25 08:33:34;;;;;;;7.78;4.72;;;5.20;99.90;;;;;;5028841;28;20072;-53
2024/01/25 08:36:02;;;;;;;;;;;5.20;99.90;;;;;;5026797;28;20048;-51
2024/01/25 08:38:29;;;;;;;2.97;1.65;;;5.30;99.90;;;;;;5030399;28;20286;-51
2024/01/25 08:40:55;;;;;;;2.45;1.40;;;5.20;99.90;;;;;;5030706;28;20067;-51
2024/01/25 08:43:22;;;;;;;1.33;1.20;;;5.30;99.90;;;;;;5025788;28;20410;-54
2024/01/25 08:45:49;;;;;;;5.63;3.88;;;5.30;99.90;;;;;;5031091;28;20405;-51
2024/01/25 08:48:16;;;;;;;3.83;2.95;;;5.40;99.90;;;;;;5023509;28;20060;-53
2024/01/25 08:50:44;;;;;;;2.95;1.77;;;5.40;99.90;;;;;;5030898;28;20560;-53
2024/01/25 08:53:11;;;;;;;3.63;2.67;;;5.40;99.90;;;;;;5030426;28;20069;-50
2024/01/25 08:55:38;;;;;;;3.05;1.98;;;5.40;99.90;;;;;;5031119;28;20048;-52
2024/01/25 08:58:05;;;;;;;2.00;1.45;;;5.30;99.90;;;;;;5022505;28;20121;-53
2024/01/25 09:00:32;;;;;;;;;;;5.30;99.90;;;;;;5019435;28;20124;-50
2024/01/25 09:02:59;;;;;;;4.50;2.65;;;5.30;99.90;;;;;;5025770;28;20423;-54
2024/01/25 09:05:28;;;;;;;5.75;2.85;;;5.30;99.90;;;;;;5030307;28;20478;-51
2024/01/25 09:07:55;;;;;;;7.55;3.72;;;5.40;99.90;;;;;;5033301;28;20037;-50
2024/01/25 09:10:22;;;;;;;;;;;5.40;99.90;;;;;;5031281;28;20128;-51
2024/01/25 09:12:49;;;;;;;4.50;3.03;;;5.40;99.90;;;;;;5028917;28;19921;-50
2024/01/25 09:15:16;;;;;;;4.60;2.00;;;5.50;99.90;;;;;;5033731;28;20120;-52
2024/01/25 09:17:44;;;;;;;1.48;1.27;;;5.50;99.90;;;;;;5034469;28;20047;-50
2024/01/25 09:20:12;;;;;;;1.35;1.20;;;5.60;99.90;;;;;;5031657;28;20041;-51
2024/01/25 09:22:39;;;;;;;;;;;5.50;99.90;;;;;;5028085;28;20045;-50
2024/01/25 09:25:06;;;;;;;4.93;2.92;;;5.40;99.90;;;;;;5033725;28;20028;-50
2024/01/25 09:27:37;;;;;;;2.67;1.60;;;5.50;99.90;;;;;;5034432;28;20383;-50
2024/01/25 09:30:05;;;;;;;3.55;1.70;;;5.40;99.90;;;;;;5032183;28;20077;-51
2024/01/25 09:32:32;;;;;;;5.90;2.88;;;5.50;99.90;;;;;;5034082;28;20037;-50
2024/01/25 09:34:59;;;;;;;5.95;3.42;;;5.70;99.90;;;;;;5015944;28;20110;-52
2024/01/25 09:37:26;;;;;;;17.85;8.90;;;5.80;99.90;;;;;;5022541;28;20069;-51
2024/01/25 09:39:54;;;;;;;9.75;5.90;;;5.80;99.90;;;;;;5004560;28;20238;-51
2024/01/25 09:42:21;;;;;;;1.60;0.85;;;5.80;99.90;;;;;;5021111;28;20088;-50
2024/01/25 09:44:48;;;;;;;1.48;0.77;;;5.70;99.90;;;;;;5017616;28;20038;-51
2024/01/25 09:47:16;;;;;;;1.70;0.80;;;5.70;99.90;;;;;;5022397;28;20076;-50
2024/01/25 09:49:44;;;;;;;3.47;1.77;;;5.90;99.90;;;;;;5034029;28;20045;-52
2024/01/25 09:52:13;;;;;;;1.55;0.80;;;6.10;99.90;;;;;;5034161;28;20051;-50
2024/01/25 09:54:40;;;;;;;1.42;0.93;;;6.20;99.90;;;;;;5020257;28;20500;-51
2024/01/25 09:57:17;;;;;;;1.38;1.00;;;6.30;99.90;;;;;;5024436;28;20051;-50
2024/01/25 09:59:44;;;;;;;3.27;2.10;;;6.50;99.90;;;;;;5033835;28;20073;-50
2024/01/25 10:02:12;;;;;;;6.20;3.22;;;6.60;99.90;;;;;;5016067;28;20140;-50
2024/01/25 10:04:39;;;;;;;3.97;2.50;;;6.80;99.90;;;;;;5033062;28;20037;-50
2024/01/25 10:07:06;;;;;;;2.47;1.60;;;6.80;99.90;;;;;;5029186;28;20423;-50
2024/01/25 10:09:41;;;;;;;3.67;2.22;;;7.00;99.90;;;;;;5033642;28;20048;-50
2024/01/25 10:12:08;;;;;;;5.05;1.60;;;7.10;99.90;;;;;;5025356;28;20494;-51
2024/01/25 10:14:44;;;;;;;1.95;1.17;;;7.10;99.90;;;;;;5032849;28;20045;-52
2024/01/25 10:17:11;;;;;;;1.23;0.98;;;7.30;99.90;;;;;;5032855;28;20077;-53
2024/01/25 10:19:42;;;;;;;1.13;0.70;;;7.30;99.90;;;;;;5029165;28;20053;-51
2024/01/25 10:22:12;;;;;;;2.20;0.90;;;7.30;99.90;;;;;;5024535;28;20510;-50
2024/01/25 10:24:40;;;;;;;4.65;1.63;;;7.40;99.90;;;;;;5032791;28;20040;-51
2024/01/25 10:27:07;;;;;;;;;;;7.30;99.90;;;;;;5033877;28;20428;-50
2024/01/25 10:29:34;;;;;;;3.20;2.35;;;7.30;99.90;;;;;;5033266;28;19932;-53
2024/01/25 10:32:06;;;;;;;3.80;0.90;;;7.40;99.90;;;;;;5028519;28;20055;-51
2024/01/25 10:34:37;;;;;;;2.75;1.17;;;7.30;99.90;;;;;;5032757;28;20049;-50
2024/01/25 10:37:08;;;;;;;1.38;0.82;;;7.40;99.90;;;;;;5033298;28;20049;-52
2024/01/25 10:39:35;;;;;;;3.05;2.22;;;7.40;99.90;;;;;;5024348;28;20165;-51
2024/01/25 10:42:02;;;;;;;2.17;1.45;;;7.40;99.90;;;;;;5033283;28;20069;-52
2024/01/25 10:44:29;;;;;;;4.32;1.80;;;7.40;99.90;;;;;;5032571;28;20457;-50
2024/01/25 10:46:57;;;;;;;4.78;1.85;;;7.60;99.90;;;;;;5032785;28;20042;-50
2024/01/25 10:49:25;;;;;;;3.47;1.90;;;7.60;99.90;;;;;;5023969;28;20049;-50
2024/01/25 10:51:53;;;;;;;2.58;1.30;;;7.60;99.90;;;;;;5032890;28;20084;-50
2024/01/25 10:54:20;;;;;;;3.95;2.28;;;7.50;99.90;;;;;;5032300;28;20038;-50
2024/01/25 10:56:47;;;;;;;2.58;1.60;;;7.50;99.90;;;;;;5024281;28;20037;-50
2024/01/25 10:59:15;;;;;;;;;;;7.50;99.90;;;;;;5029233;28;20045;-51
2024/01/25 11:01:45;;;;;;;2.53;1.10;;;7.60;99.90;;;;;;5032665;28;19967;-51
2024/01/25 11:04:16;;;;;;;4.38;1.27;;;7.50;99.90;;;;;;5032277;28;20338;-51
2024/01/25 11:06:45;;;;;;;0.82;0.70;;;7.70;99.90;;;;;;5029300;28;20486;-56
2024/01/25 11:09:21;;;;;;;1.42;0.95;;;7.80;99.90;;;;;;5032706;28;20551;-51
2024/01/25 11:11:49;;;;;;;1.55;1.23;;;7.70;99.90;;;;;;5024224;28;20037;-50
2024/01/25 11:14:16;;;;;;;2.50;1.33;;;7.60;99.90;;;;;;5030238;28;20122;-52
2024/01/25 11:16:47;;;;;;;4.00;1.95;;;7.80;99.90;;;;;;5031842;28;20501;-50
2024/01/25 11:19:21;;;;;;;3.22;2.20;;;7.80;99.90;;;;;;5032366;28;20544;-51
2024/01/25 11:21:52;;;;;;;6.13;1.83;;;7.70;99.90;;;;;;5024549;28;20493;-50
2024/01/25 11:24:21;;;;;;;2.55;1.70;;;7.80;99.90;;;;;;5026770;28;20045;-52
2024/01/25 11:26:49;;;;;;;2.00;1.40;;;7.90;99.90;;;;;;5032071;28;20042;-50
2024/01/25 11:29:17;;;;;;;2.53;1.63;;;8.00;99.90;;;;;;5031665;28;20045;-50
2024/01/25 11:31:48;;;;;;;3.70;1.85;;;8.20;99.90;;;;;;5031780;28;20045;-52
2024/01/25 11:34:16;;;;;;;2.35;1.58;;;8.40;99.90;;;;;;5029418;28;20056;-52
2024/01/25 11:36:44;;;;;;;3.30;2.28;;;8.50;99.90;;;;;;5032212;28;20092;-51
2024/01/25 11:39:12;;;;;;;3.22;1.70;;;8.60;99.90;;;;;;5028788;28;20852;-50
2024/01/25 11:41:39;;;;;;;2.83;1.50;;;8.40;99.90;;;;;;5030458;28;20069;-51
2024/01/25 11:44:06;;;;;;;3.55;1.85;;;8.40;99.90;;;;;;5031553;28;20045;-51
2024/01/25 11:46:33;;;;;;;2.42;1.58;;;8.40;99.90;;;;;;5031965;28;20533;-53
2024/01/25 11:49:04;;;;;;;2.40;1.58;;;8.40;99.90;;;;;;5028656;28;20041;-50
2024/01/25 11:51:31;;;;;;;;;;;8.40;99.90;;;;;;5032176;28;20088;-54
2024/01/25 11:53:59;;;;;;;3.88;2.15;;;8.40;99.90;;;;;;5031307;28;20369;-50
2024/01/25 11:56:35;;;;;;;5.95;2.58;;;8.50;99.90;;;;;;5029543;28;20120;-52
2024/01/25 11:59:03;;;;;;;6.30;2.08;;;8.60;99.90;;;;;;5025293;28;20045;-51
2024/01/25 12:01:30;;;;;;;5.22;2.20;;;8.70;99.90;;;;;;5031635;28;20461;-52
2024/01/25 12:03:57;;;;;;;6.53;1.88;;;8.90;99.90;;;;;;5031255;28;20037;-50
2024/01/25 12:06:24;;;;;;;2.92;1.60;;;8.90;99.90;;;;;;5027093;28;20038;-53
2024/01/25 12:08:51;;;;;;;4.38;1.90;;;8.80;99.90;;;;;;5031136;28;20092;-50
2024/01/25 12:11:20;;;;;;;4.03;2.72;;;8.70;99.90;;;;;;5031269;28;20049;-51
2024/01/25 12:13:47;;;;;;;4.20;2.45;;;8.70;99.90;;;;;;5030445;28;20554;-51
2024/01/25 12:16:14;;;;;;;3.28;2.10;;;8.60;99.90;;;;;;5025957;28;20108;-50
2024/01/25 12:18:43;;;;;;;5.60;2.90;;;8.80;99.90;;;;;;5029707;28;20041;-50
2024/01/25 12:21:10;;;;;;;10.40;4.93;;;8.90;99.90;;;;;;5031355;28;20050;-51
2024/01/25 12:23:38;;;;;;;6.85;2.92;;;8.90;99.90;;;;;;5030721;28;20051;-51
2024/01/25 12:26:08;;;;;;;5.13;2.40;;;9.00;99.90;;;;;;5023043;28;20065;-51
2024/01/25 12:28:35;;;;;;;5.65;2.45;;;9.00;99.90;;;;;;5031093;28;20506;-54
2024/01/25 12:31:05;;;;;;;3.65;1.90;;;9.00;99.90;;;;;;5031197;28;20048;-52
2024/01/25 12:33:33;;;;;;;5.15;2.10;;;9.20;99.90;;;;;;5027291;28;20120;-52
2024/01/25 12:36:04;;;;;;;4.28;1.30;;;9.20;99.90;;;;;;5031089;28;20419;-52
2024/01/25 12:38:33;;;;;;;2.42;0.98;;;9.00;99.90;;;;;;5027339;28;20042;-50
2024/01/25 12:41:02;;;;;;;48.45;16.52;;;8.80;99.90;;;;;;5031038;28;20045;-52
2024/01/25 12:43:30;;;;;;;22.48;8.05;;;8.80;99.90;;;;;;5029772;28;20048;-54
2024/01/25 12:45:57;;;;;;;2.58;1.20;;;8.70;99.90;;;;;;5028041;28;20135;-51
2024/01/25 12:48:42;;;;;;;12.88;4.38;;;8.60;99.90;;;;;;5026849;28;20068;-51
2024/01/25 12:51:10;;;;;;;6.13;2.75;;;8.50;99.90;;;;;;5031208;28;20574;-50
2024/01/25 12:53:37;;;;;;;6.10;2.70;;;8.40;99.90;;;;;;5030430;28;20251;-52
2024/01/25 12:56:04;;;;;;;4.63;1.90;;;8.40;99.90;;;;;;5029478;28;20497;-51
2024/01/25 12:58:32;;;;;;;;;;;8.30;99.90;;;;;;5028302;28;20437;-50
2024/01/25 13:00:59;;;;;;;3.40;2.45;;;8.30;99.90;;;;;;5022726;28;20018;-51
2024/01/25 13:03:26;;;;;;;;;;;8.40;99.90;;;;;;5030970;28;20037;-51